sensor_id;sensor_type;location;lat;lon;timestamp;temperature;humidity
4828;DHT22;2428;48.732;9.148;2023-11-19T00:01:57;7.30;99.90
4828;DHT22;2428;48.732;9.148;2023-11-19T00:04:22;7.30;99.90
4828;DHT22;2428;48.732;9.148;2023-11-19T00:06:48;7.40;99.90
4828;DHT22;2428;48.732;9.148;2023-11-19T00:09:14;7.40;99.90
4828;DHT22;2428;48.732;9.148;2023-11-19T00:11:42;7.40;99.90
4828;DHT22;2428;48.732;9.148;2023-11-19T00:14:07;7.50;99.90
4828;DHT22;2428;48.732;9.148;2023-11-19T00:16:34;7.50;99.90
4828;DHT22;2428;48.732;9.148;2023-11-19T00:19:00;7.60;99.90
4828;DHT22;2428;48.732;9.148;2023-11-19T00:21:26;7.60;99.90
4828;DHT22;2428;48.732;9.148;2023-11-19T00:23:54;7.60;99.90
4828;DHT22;2428;48.732;9.148;2023-11-19T00:26:19;7.60;99.90
4828;DHT22;2428;48.732;9.148;2023-11-19T00:28:45;7.60;99.90
4828;DHT22;2428;48.732;9.148;2023-11-19T00:31:13;7.70;99.90
4828;DHT22;2428;48.732;9.148;2023-11-19T00:33:38;7.70;99.90
4828;DHT22;2428;48.732;9.148;2023-11-19T00:36:05;7.70;99.90
4828;DHT22;2428;48.732;9.148;2023-11-19T00:38:31;7.80;99.90
4828;DHT22;2428;48.732;9.148;2023-11-19T00:40:56;7.80;99.90
4828;DHT22;2428;48.732;9.148;2023-11-19T00:43:22;7.80;99.90
4828;DHT22;2428;48.732;9.148;2023-11-19T00:45:47;7.80;99.90
4828;DHT22;2428;48.732;9.148;2023-11-19T00:48:16;7.80;99.90
4828;DHT22;2428;48.732;9.148;2023-11-19T00:50:42;7.80;99.90
4828;DHT22;2428;48.732;9.148;2023-11-19T00:53:09;7.90;99.90
4828;DHT22;2428;48.732;9.148;2023-11-19T00:55:35;7.90;99.90
4828;DHT22;2428;48.732;9.148;2023-11-19T00:58:01;8.00;99.90
4828;DHT22;2428;48.732;9.148;2023-11-19T01:00:26;8.00;99.90
4828;DHT22;2428;48.732;9.148;2023-11-19T01:02:53;8.10;99.90
4828;DHT22;2428;48.732;9.148;2023-11-19T01:05:19;8.10;99.90
4828;DHT22;2428;48.732;9.148;2023-11-19T01:07:48;8.20;99.90
4828;DHT22;2428;48.732;9.148;2023-11-19T01:10:14;8.20;99.90
4828;DHT22;2428;48.732;9.148;2023-11-19T01:12:41;8.20;99.90
4828;DHT22;2428;48.732;9.148;2023-11-19T01:15:08;8.20;99.90
4828;DHT22;2428;48.732;9.148;2023-11-19T01:17:33;8.20;99.90
4828;DHT22;2428;48.732;9.148;2023-11-19T01:19:59;8.30;99.90
4828;DHT22;2428;48.732;9.148;2023-11-19T01:22:24;8.30;99.90
4828;DHT22;2428;48.732;9.148;2023-11-19T01:24:50;8.30;99.90
4828;DHT22;2428;48.732;9.148;2023-11-19T01:27:17;8.40;99.90
4828;DHT22;2428;48.732;9.148;2023-11-19T01:29:43;8.50;99.90
4828;DHT22;2428;48.732;9.148;2023-11-19T01:32:08;8.50;99.90
4828;DHT22;2428;48.732;9.148;2023-11-19T01:34:34;8.50;99.90
4828;DHT22;2428;48.732;9.148;2023-11-19T01:37:00;8.60;99.90
4828;DHT22;2428;48.732;9.148;2023-11-19T01:39:25;8.60;99.90
4828;DHT22;2428;48.732;9.148;2023-11-19T01:41:51;8.70;99.90
4828;DHT22;2428;48.732;9.148;2023-11-19T01:44:17;8.70;99.90
4828;DHT22;2428;48.732;9.148;2023-11-19T01:46:44;8.70;99.90
4828;DHT22;2428;48.732;9.148;2023-11-19T01:49:14;8.80;99.90
4828;DHT22;2428;48.732;9.148;2023-11-19T01:51:41;8.80;99.90
4828;DHT22;2428;48.732;9.148;2023-11-19T01:54:07;8.90;99.90
4828;DHT22;2428;48.732;9.148;2023-11-19T01:56:33;8.90;99.90
4828;DHT22;2428;48.732;9.148;2023-11-19T01:59:00;8.90;99.90
4828;DHT22;2428;48.732;9.148;2023-11-19T02:01:26;9.00;99.90
4828;DHT22;2428;48.732;9.148;2023-11-19T02:03:52;9.00;99.90
4828;DHT22;2428;48.732;9.148;2023-11-19T02:06:18;9.00;99.90
4828;DHT22;2428;48.732;9.148;2023-11-19T02:08:44;9.00;99.90
4828;DHT22;2428;48.732;9.148;2023-11-19T02:11:10;9.10;99.90
4828;DHT22;2428;48.732;9.148;2023-11-19T02:13:37;9.10;99.90
4828;DHT22;2428;48.732;9.148;2023-11-19T02:16:03;9.10;99.90
4828;DHT22;2428;48.732;9.148;2023-11-19T02:18:30;9.10;99.90
4828;DHT22;2428;48.732;9.148;2023-11-19T02:20:57;9.10;99.90
4828;DHT22;2428;48.732;9.148;2023-11-19T02:23:26;9.20;99.90
4828;DHT22;2428;48.732;9.148;2023-11-19T02:28:31;9.30;99.90
4828;DHT22;2428;48.732;9.148;2023-11-19T02:30:58;9.30;99.90
4828;DHT22;2428;48.732;9.148;2023-11-19T02:33:24;9.30;99.90
4828;DHT22;2428;48.732;9.148;2023-11-19T02:35:50;9.40;99.90
4828;DHT22;2428;48.732;9.148;2023-11-19T02:38:17;9.40;99.90
4828;DHT22;2428;48.732;9.148;2023-11-19T02:40:42;9.40;99.90
4828;DHT22;2428;48.732;9.148;2023-11-19T02:43:08;9.40;99.90
4828;DHT22;2428;48.732;9.148;2023-11-19T02:45:34;9.50;99.90
4828;DHT22;2428;48.732;9.148;2023-11-19T02:47:59;9.50;99.90
4828;DHT22;2428;48.732;9.148;2023-11-19T02:50:28;9.50;99.90
4828;DHT22;2428;48.732;9.148;2023-11-19T02:52:55;9.50;99.90
4828;DHT22;2428;48.732;9.148;2023-11-19T02:55:24;9.50;99.90
4828;DHT22;2428;48.732;9.148;2023-11-19T02:57:51;9.50;99.90
4828;DHT22;2428;48.732;9.148;2023-11-19T03:00:20;9.60;99.90
4828;DHT22;2428;48.732;9.148;2023-11-19T03:02:50;9.60;99.90
4828;DHT22;2428;48.732;9.148;2023-11-19T03:05:25;9.60;99.90
4828;DHT22;2428;48.732;9.148;2023-11-19T03:07:51;9.60;99.90
4828;DHT22;2428;48.732;9.148;2023-11-19T03:10:17;9.60;99.90
4828;DHT22;2428;48.732;9.148;2023-11-19T03:12:43;9.70;99.90
4828;DHT22;2428;48.732;9.148;2023-11-19T03:15:09;9.60;99.90
4828;DHT22;2428;48.732;9.148;2023-11-19T03:17:39;9.60;99.90
4828;DHT22;2428;48.732;9.148;2023-11-19T03:20:06;9.70;99.90
4828;DHT22;2428;48.732;9.148;2023-11-19T03:22:32;9.70;99.90
4828;DHT22;2428;48.732;9.148;2023-11-19T03:24:59;9.70;99.90
4828;DHT22;2428;48.732;9.148;2023-11-19T03:27:25;9.70;99.90
4828;DHT22;2428;48.732;9.148;2023-11-19T03:29:51;9.70;99.90
4828;DHT22;2428;48.732;9.148;2023-11-19T03:32:16;9.70;99.90
4828;DHT22;2428;48.732;9.148;2023-11-19T03:34:42;9.80;99.90
4828;DHT22;2428;48.732;9.148;2023-11-19T03:37:07;9.80;99.90
4828;DHT22;2428;48.732;9.148;2023-11-19T03:39:34;9.80;99.90
4828;DHT22;2428;48.732;9.148;2023-11-19T03:41:59;9.70;99.90
4828;DHT22;2428;48.732;9.148;2023-11-19T03:44:26;9.70;99.90
4828;DHT22;2428;48.732;9.148;2023-11-19T03:46:52;9.80;99.90
4828;DHT22;2428;48.732;9.148;2023-11-19T03:49:18;9.70;99.90
4828;DHT22;2428;48.732;9.148;2023-11-19T03:51:43;9.70;99.90
4828;DHT22;2428;48.732;9.148;2023-11-19T03:54:09;9.70;99.90
4828;DHT22;2428;48.732;9.148;2023-11-19T03:56:35;9.80;99.90
4828;DHT22;2428;48.732;9.148;2023-11-19T03:59:00;9.80;99.90
4828;DHT22;2428;48.732;9.148;2023-11-19T04:01:26;9.80;99.90
4828;DHT22;2428;48.732;9.148;2023-11-19T04:03:51;9.80;99.90
4828;DHT22;2428;48.732;9.148;2023-11-19T04:06:17;9.80;99.90
4828;DHT22;2428;48.732;9.148;2023-11-19T04:08:42;9.80;99.90
4828;DHT22;2428;48.732;9.148;2023-11-19T04:11:08;9.80;99.90
4828;DHT22;2428;48.732;9.148;2023-11-19T04:13:34;9.80;99.90
4828;DHT22;2428;48.732;9.148;2023-11-19T04:16:00;9.80;99.90
4828;DHT22;2428;48.732;9.148;2023-11-19T04:18:26;9.80;99.90
4828;DHT22;2428;48.732;9.148;2023-11-19T04:20:52;9.80;99.90
4828;DHT22;2428;48.732;9.148;2023-11-19T04:23:18;9.80;99.90
4828;DHT22;2428;48.732;9.148;2023-11-19T04:25:43;9.80;99.90
4828;DHT22;2428;48.732;9.148;2023-11-19T04:28:09;9.90;99.90
4828;DHT22;2428;48.732;9.148;2023-11-19T04:30:35;9.90;99.90
4828;DHT22;2428;48.732;9.148;2023-11-19T04:33:01;9.90;99.90
4828;DHT22;2428;48.732;9.148;2023-11-19T04:35:26;9.90;99.90
4828;DHT22;2428;48.732;9.148;2023-11-19T04:37:52;10.00;99.90
4828;DHT22;2428;48.732;9.148;2023-11-19T04:40:17;10.00;99.90
4828;DHT22;2428;48.732;9.148;2023-11-19T04:42:43;10.00;99.90
4828;DHT22;2428;48.732;9.148;2023-11-19T04:45:09;10.00;99.90
4828;DHT22;2428;48.732;9.148;2023-11-19T04:47:36;10.00;99.90
4828;DHT22;2428;48.732;9.148;2023-11-19T04:50:02;10.00;99.90
4828;DHT22;2428;48.732;9.148;2023-11-19T04:52:29;10.10;99.90
4828;DHT22;2428;48.732;9.148;2023-11-19T04:54:54;10.00;99.90
4828;DHT22;2428;48.732;9.148;2023-11-19T04:57:20;10.10;99.90
4828;DHT22;2428;48.732;9.148;2023-11-19T04:59:45;10.10;99.90
4828;DHT22;2428;48.732;9.148;2023-11-19T05:02:11;10.10;99.90
4828;DHT22;2428;48.732;9.148;2023-11-19T05:04:37;10.10;99.90
4828;DHT22;2428;48.732;9.148;2023-11-19T05:07:05;10.10;99.90
4828;DHT22;2428;48.732;9.148;2023-11-19T05:09:32;10.00;99.90
4828;DHT22;2428;48.732;9.148;2023-11-19T05:11:58;10.10;99.90
4828;DHT22;2428;48.732;9.148;2023-11-19T05:14:23;10.00;99.90
4828;DHT22;2428;48.732;9.148;2023-11-19T05:16:49;10.00;99.90
4828;DHT22;2428;48.732;9.148;2023-11-19T05:19:15;10.00;99.90
4828;DHT22;2428;48.732;9.148;2023-11-19T05:21:43;10.00;99.90
4828;DHT22;2428;48.732;9.148;2023-11-19T05:24:09;10.10;99.90
4828;DHT22;2428;48.732;9.148;2023-11-19T05:26:35;10.10;99.90
4828;DHT22;2428;48.732;9.148;2023-11-19T05:29:00;10.00;99.90
4828;DHT22;2428;48.732;9.148;2023-11-19T05:31:26;10.10;99.90
4828;DHT22;2428;48.732;9.148;2023-11-19T05:33:52;10.10;99.90
4828;DHT22;2428;48.732;9.148;2023-11-19T05:36:17;10.10;99.90
4828;DHT22;2428;48.732;9.148;2023-11-19T05:38:43;10.10;99.90
4828;DHT22;2428;48.732;9.148;2023-11-19T05:41:10;10.10;99.90
4828;DHT22;2428;48.732;9.148;2023-11-19T05:43:35;10.10;99.90
4828;DHT22;2428;48.732;9.148;2023-11-19T05:46:01;10.10;99.90
4828;DHT22;2428;48.732;9.148;2023-11-19T05:48:27;10.20;99.90
4828;DHT22;2428;48.732;9.148;2023-11-19T05:50:53;10.20;99.90
4828;DHT22;2428;48.732;9.148;2023-11-19T05:53:19;10.20;99.90
4828;DHT22;2428;48.732;9.148;2023-11-19T05:55:44;10.20;99.90
4828;DHT22;2428;48.732;9.148;2023-11-19T05:58:14;10.20;99.90
4828;DHT22;2428;48.732;9.148;2023-11-19T06:00:40;10.30;99.90
4828;DHT22;2428;48.732;9.148;2023-11-19T06:03:09;10.30;99.90
4828;DHT22;2428;48.732;9.148;2023-11-19T06:05:34;10.20;99.90
4828;DHT22;2428;48.732;9.148;2023-11-19T06:08:00;10.30;99.90
4828;DHT22;2428;48.732;9.148;2023-11-19T06:10:25;10.20;99.90
4828;DHT22;2428;48.732;9.148;2023-11-19T06:12:59;10.20;99.90
4828;DHT22;2428;48.732;9.148;2023-11-19T06:15:26;10.30;99.90
4828;DHT22;2428;48.732;9.148;2023-11-19T06:17:52;10.20;99.90
4828;DHT22;2428;48.732;9.148;2023-11-19T06:20:18;10.20;99.90
4828;DHT22;2428;48.732;9.148;2023-11-19T06:22:45;10.30;99.90
4828;DHT22;2428;48.732;9.148;2023-11-19T06:25:11;10.30;99.90
4828;DHT22;2428;48.732;9.148;2023-11-19T06:27:37;10.30;99.90
4828;DHT22;2428;48.732;9.148;2023-11-19T06:30:02;10.20;99.90
4828;DHT22;2428;48.732;9.148;2023-11-19T06:32:28;10.30;99.90
4828;DHT22;2428;48.732;9.148;2023-11-19T06:34:54;10.20;99.90
4828;DHT22;2428;48.732;9.148;2023-11-19T06:37:20;10.20;99.90
4828;DHT22;2428;48.732;9.148;2023-11-19T06:39:45;10.30;99.90
4828;DHT22;2428;48.732;9.148;2023-11-19T06:42:11;10.30;99.90
4828;DHT22;2428;48.732;9.148;2023-11-19T06:44:36;10.30;99.90
4828;DHT22;2428;48.732;9.148;2023-11-19T06:47:02;10.30;99.90
4828;DHT22;2428;48.732;9.148;2023-11-19T06:49:28;10.30;99.90
4828;DHT22;2428;48.732;9.148;2023-11-19T06:51:53;10.30;99.90
4828;DHT22;2428;48.732;9.148;2023-11-19T06:54:19;10.30;99.90
4828;DHT22;2428;48.732;9.148;2023-11-19T06:56:44;10.30;99.90
4828;DHT22;2428;48.732;9.148;2023-11-19T06:59:10;10.30;99.90
4828;DHT22;2428;48.732;9.148;2023-11-19T07:01:36;10.30;99.90
4828;DHT22;2428;48.732;9.148;2023-11-19T07:04:02;10.30;99.90
4828;DHT22;2428;48.732;9.148;2023-11-19T07:06:35;10.30;99.90
4828;DHT22;2428;48.732;9.148;2023-11-19T07:09:02;10.40;99.90
4828;DHT22;2428;48.732;9.148;2023-11-19T07:11:38;10.40;99.90
4828;DHT22;2428;48.732;9.148;2023-11-19T07:14:05;10.40;99.90
4828;DHT22;2428;48.732;9.148;2023-11-19T07:16:35;10.40;99.90
4828;DHT22;2428;48.732;9.148;2023-11-19T07:19:03;10.40;99.90
4828;DHT22;2428;48.732;9.148;2023-11-19T07:21:29;10.40;99.90
4828;DHT22;2428;48.732;9.148;2023-11-19T07:23:55;10.40;99.90
4828;DHT22;2428;48.732;9.148;2023-11-19T07:26:21;10.40;99.90
4828;DHT22;2428;48.732;9.148;2023-11-19T07:28:48;10.40;99.90
4828;DHT22;2428;48.732;9.148;2023-11-19T07:31:13;10.40;99.90
4828;DHT22;2428;48.732;9.148;2023-11-19T07:33:39;10.40;99.90
4828;DHT22;2428;48.732;9.148;2023-11-19T07:36:11;10.40;99.90
4828;DHT22;2428;48.732;9.148;2023-11-19T07:38:37;10.40;99.90
4828;DHT22;2428;48.732;9.148;2023-11-19T07:41:04;10.50;99.90
4828;DHT22;2428;48.732;9.148;2023-11-19T07:43:30;10.50;99.90
4828;DHT22;2428;48.732;9.148;2023-11-19T07:45:56;10.50;99.90
4828;DHT22;2428;48.732;9.148;2023-11-19T07:48:21;10.50;99.90
4828;DHT22;2428;48.732;9.148;2023-11-19T07:50:49;10.60;99.90
4828;DHT22;2428;48.732;9.148;2023-11-19T07:53:18;10.60;99.90
4828;DHT22;2428;48.732;9.148;2023-11-19T07:55:43;10.60;99.90
4828;DHT22;2428;48.732;9.148;2023-11-19T07:58:12;10.60;99.90
4828;DHT22;2428;48.732;9.148;2023-11-19T08:00:38;10.60;99.90
4828;DHT22;2428;48.732;9.148;2023-11-19T08:03:04;10.70;99.90
4828;DHT22;2428;48.732;9.148;2023-11-19T08:05:30;10.70;99.90
4828;DHT22;2428;48.732;9.148;2023-11-19T08:07:56;10.70;99.90
4828;DHT22;2428;48.732;9.148;2023-11-19T08:10:22;10.70;99.90
4828;DHT22;2428;48.732;9.148;2023-11-19T08:12:48;10.70;99.90
4828;DHT22;2428;48.732;9.148;2023-11-19T08:15:14;10.70;99.90
4828;DHT22;2428;48.732;9.148;2023-11-19T08:17:41;10.70;99.90
4828;DHT22;2428;48.732;9.148;2023-11-19T08:20:07;10.80;99.90
4828;DHT22;2428;48.732;9.148;2023-11-19T08:22:36;10.80;99.90
4828;DHT22;2428;48.732;9.148;2023-11-19T08:25:04;10.90;99.90
4828;DHT22;2428;48.732;9.148;2023-11-19T08:27:29;10.90;99.90
4828;DHT22;2428;48.732;9.148;2023-11-19T08:29:55;11.00;99.90
4828;DHT22;2428;48.732;9.148;2023-11-19T08:32:24;11.00;99.90
4828;DHT22;2428;48.732;9.148;2023-11-19T08:34:50;11.00;99.90
4828;DHT22;2428;48.732;9.148;2023-11-19T08:37:15;11.10;99.90
4828;DHT22;2428;48.732;9.148;2023-11-19T08:39:43;11.50;99.90
4828;DHT22;2428;48.732;9.148;2023-11-19T08:42:09;12.20;99.90
4828;DHT22;2428;48.732;9.148;2023-11-19T08:44:34;12.30;99.90
4828;DHT22;2428;48.732;9.148;2023-11-19T08:47:00;12.20;99.90
4828;DHT22;2428;48.732;9.148;2023-11-19T08:49:26;12.00;99.90
4828;DHT22;2428;48.732;9.148;2023-11-19T08:51:51;11.90;99.90
4828;DHT22;2428;48.732;9.148;2023-11-19T08:54:17;11.70;99.90
4828;DHT22;2428;48.732;9.148;2023-11-19T08:56:42;11.60;99.90
4828;DHT22;2428;48.732;9.148;2023-11-19T08:59:08;11.60;99.90
4828;DHT22;2428;48.732;9.148;2023-11-19T09:01:34;11.80;99.90
4828;DHT22;2428;48.732;9.148;2023-11-19T09:03:59;12.10;99.90
4828;DHT22;2428;48.732;9.148;2023-11-19T09:06:25;12.20;99.90
4828;DHT22;2428;48.732;9.148;2023-11-19T09:08:50;12.60;99.90
4828;DHT22;2428;48.732;9.148;2023-11-19T09:11:16;13.20;99.90
4828;DHT22;2428;48.732;9.148;2023-11-19T09:13:42;13.80;99.90
4828;DHT22;2428;48.732;9.148;2023-11-19T09:16:08;13.80;99.90
4828;DHT22;2428;48.732;9.148;2023-11-19T09:18:34;13.60;99.90
4828;DHT22;2428;48.732;9.148;2023-11-19T09:21:00;13.20;99.90
4828;DHT22;2428;48.732;9.148;2023-11-19T09:23:26;12.90;99.90
4828;DHT22;2428;48.732;9.148;2023-11-19T09:25:53;12.70;99.90
4828;DHT22;2428;48.732;9.148;2023-11-19T09:28:18;12.60;99.90
4828;DHT22;2428;48.732;9.148;2023-11-19T09:30:44;12.40;99.90
4828;DHT22;2428;48.732;9.148;2023-11-19T09:33:10;12.40;99.90
4828;DHT22;2428;48.732;9.148;2023-11-19T09:35:36;12.40;99.90
4828;DHT22;2428;48.732;9.148;2023-11-19T09:38:01;12.50;99.90
4828;DHT22;2428;48.732;9.148;2023-11-19T09:40:27;12.40;99.90
4828;DHT22;2428;48.732;9.148;2023-11-19T09:42:54;12.50;99.90
4828;DHT22;2428;48.732;9.148;2023-11-19T09:45:21;12.60;99.90
4828;DHT22;2428;48.732;9.148;2023-11-19T09:47:47;12.60;99.90
4828;DHT22;2428;48.732;9.148;2023-11-19T09:50:19;12.70;99.90
4828;DHT22;2428;48.732;9.148;2023-11-19T09:52:48;12.70;99.90
4828;DHT22;2428;48.732;9.148;2023-11-19T09:55:14;12.70;99.90
4828;DHT22;2428;48.732;9.148;2023-11-19T09:57:40;12.60;99.90
4828;DHT22;2428;48.732;9.148;2023-11-19T10:00:08;12.70;99.90
4828;DHT22;2428;48.732;9.148;2023-11-19T10:02:35;12.70;99.90
4828;DHT22;2428;48.732;9.148;2023-11-19T10:05:04;12.70;99.90
4828;DHT22;2428;48.732;9.148;2023-11-19T10:07:31;12.70;99.90
4828;DHT22;2428;48.732;9.148;2023-11-19T10:10:00;12.80;99.90
4828;DHT22;2428;48.732;9.148;2023-11-19T10:12:27;12.90;99.90
4828;DHT22;2428;48.732;9.148;2023-11-19T10:14:55;12.90;99.90
4828;DHT22;2428;48.732;9.148;2023-11-19T10:17:21;12.90;99.90
4828;DHT22;2428;48.732;9.148;2023-11-19T10:19:47;13.00;99.90
4828;DHT22;2428;48.732;9.148;2023-11-19T10:22:12;13.00;99.90
4828;DHT22;2428;48.732;9.148;2023-11-19T10:24:41;13.10;99.90
4828;DHT22;2428;48.732;9.148;2023-11-19T10:27:07;13.20;99.90
4828;DHT22;2428;48.732;9.148;2023-11-19T10:29:36;13.20;99.90
4828;DHT22;2428;48.732;9.148;2023-11-19T10:32:03;13.20;99.90
4828;DHT22;2428;48.732;9.148;2023-11-19T10:34:29;13.20;99.90
4828;DHT22;2428;48.732;9.148;2023-11-19T10:36:55;13.20;99.90
4828;DHT22;2428;48.732;9.148;2023-11-19T10:39:21;13.10;99.90
4828;DHT22;2428;48.732;9.148;2023-11-19T10:41:49;13.20;99.90
4828;DHT22;2428;48.732;9.148;2023-11-19T10:44:33;13.20;99.90
4828;DHT22;2428;48.732;9.148;2023-11-19T10:47:01;13.20;99.90
4828;DHT22;2428;48.732;9.148;2023-11-19T10:49:26;13.30;99.90
4828;DHT22;2428;48.732;9.148;2023-11-19T10:51:53;13.30;99.90
4828;DHT22;2428;48.732;9.148;2023-11-19T10:54:22;13.40;99.90
4828;DHT22;2428;48.732;9.148;2023-11-19T10:56:54;13.40;99.90
4828;DHT22;2428;48.732;9.148;2023-11-19T10:59:21;13.50;99.90
4828;DHT22;2428;48.732;9.148;2023-11-19T11:01:48;13.50;99.90
4828;DHT22;2428;48.732;9.148;2023-11-19T11:04:22;13.60;99.90
4828;DHT22;2428;48.732;9.148;2023-11-19T11:06:48;13.70;99.90
4828;DHT22;2428;48.732;9.148;2023-11-19T11:09:14;13.80;99.90
4828;DHT22;2428;48.732;9.148;2023-11-19T11:11:40;13.80;99.90
4828;DHT22;2428;48.732;9.148;2023-11-19T11:14:12;13.80;99.90
4828;DHT22;2428;48.732;9.148;2023-11-19T11:16:38;13.90;99.90
4828;DHT22;2428;48.732;9.148;2023-11-19T11:19:05;13.90;99.90
4828;DHT22;2428;48.732;9.148;2023-11-19T11:21:31;13.90;99.90
4828;DHT22;2428;48.732;9.148;2023-11-19T11:26:48;14.00;99.90
4828;DHT22;2428;48.732;9.148;2023-11-19T11:32:21;14.10;99.90
4828;DHT22;2428;48.732;9.148;2023-11-19T11:35:07;14.10;99.90
4828;DHT22;2428;48.732;9.148;2023-11-19T11:37:55;14.00;99.90
4828;DHT22;2428;48.732;9.148;2023-11-19T11:40:25;14.00;99.90
4828;DHT22;2428;48.732;9.148;2023-11-19T11:42:52;13.90;99.90
4828;DHT22;2428;48.732;9.148;2023-11-19T11:45:18;13.90;99.90
4828;DHT22;2428;48.732;9.148;2023-11-19T11:50:20;14.00;99.90
4828;DHT22;2428;48.732;9.148;2023-11-19T11:58:18;13.90;99.90
4828;DHT22;2428;48.732;9.148;2023-11-19T12:00:46;13.90;99.90
4828;DHT22;2428;48.732;9.148;2023-11-19T12:03:12;13.90;99.90
4828;DHT22;2428;48.732;9.148;2023-11-19T12:05:42;13.90;99.90
4828;DHT22;2428;48.732;9.148;2023-11-19T12:08:11;13.90;99.90
4828;DHT22;2428;48.732;9.148;2023-11-19T12:10:43;13.90;99.90
4828;DHT22;2428;48.732;9.148;2023-11-19T12:13:10;13.90;99.90
4828;DHT22;2428;48.732;9.148;2023-11-19T12:18:23;13.80;99.90
4828;DHT22;2428;48.732;9.148;2023-11-19T12:20:49;13.80;99.90
4828;DHT22;2428;48.732;9.148;2023-11-19T12:23:14;13.80;99.90
4828;DHT22;2428;48.732;9.148;2023-11-19T12:25:41;13.80;99.90
4828;DHT22;2428;48.732;9.148;2023-11-19T12:28:12;13.80;99.90
4828;DHT22;2428;48.732;9.148;2023-11-19T12:30:38;13.80;99.90
4828;DHT22;2428;48.732;9.148;2023-11-19T12:33:08;13.90;99.90
4828;DHT22;2428;48.732;9.148;2023-11-19T12:35:47;14.00;99.90
4828;DHT22;2428;48.732;9.148;2023-11-19T12:38:23;14.00;99.90
4828;DHT22;2428;48.732;9.148;2023-11-19T12:41:09;14.00;99.90
4828;DHT22;2428;48.732;9.148;2023-11-19T12:43:39;14.00;99.90
4828;DHT22;2428;48.732;9.148;2023-11-19T12:46:24;14.00;99.90
4828;DHT22;2428;48.732;9.148;2023-11-19T12:48:52;14.00;99.90
4828;DHT22;2428;48.732;9.148;2023-11-19T12:51:18;14.00;99.90
4828;DHT22;2428;48.732;9.148;2023-11-19T12:53:49;14.10;99.90
4828;DHT22;2428;48.732;9.148;2023-11-19T12:56:16;14.20;99.90
4828;DHT22;2428;48.732;9.148;2023-11-19T12:58:41;14.20;99.90
4828;DHT22;2428;48.732;9.148;2023-11-19T13:01:09;14.30;99.90
4828;DHT22;2428;48.732;9.148;2023-11-19T13:03:38;14.30;99.90
4828;DHT22;2428;48.732;9.148;2023-11-19T13:06:11;14.30;99.90
4828;DHT22;2428;48.732;9.148;2023-11-19T13:08:42;14.40;99.90
4828;DHT22;2428;48.732;9.148;2023-11-19T13:11:09;14.40;99.90
4828;DHT22;2428;48.732;9.148;2023-11-19T13:16:19;14.30;99.90
4828;DHT22;2428;48.732;9.148;2023-11-19T13:18:44;14.20;99.90
4828;DHT22;2428;48.732;9.148;2023-11-19T13:21:10;14.10;99.90
4828;DHT22;2428;48.732;9.148;2023-11-19T13:23:36;14.00;99.90
4828;DHT22;2428;48.732;9.148;2023-11-19T13:26:01;14.00;99.90
4828;DHT22;2428;48.732;9.148;2023-11-19T13:28:27;13.90;99.90
4828;DHT22;2428;48.732;9.148;2023-11-19T13:30:53;13.90;99.90
4828;DHT22;2428;48.732;9.148;2023-11-19T13:33:18;13.90;99.90
4828;DHT22;2428;48.732;9.148;2023-11-19T13:35:44;13.80;99.90
4828;DHT22;2428;48.732;9.148;2023-11-19T13:38:10;13.80;99.90
4828;DHT22;2428;48.732;9.148;2023-11-19T13:40:35;13.80;99.90
4828;DHT22;2428;48.732;9.148;2023-11-19T13:43:01;13.80;99.90
4828;DHT22;2428;48.732;9.148;2023-11-19T13:45:27;13.80;99.90
4828;DHT22;2428;48.732;9.148;2023-11-19T13:47:53;13.80;99.90
4828;DHT22;2428;48.732;9.148;2023-11-19T13:50:18;13.70;99.90
4828;DHT22;2428;48.732;9.148;2023-11-19T13:52:45;13.60;99.90
4828;DHT22;2428;48.732;9.148;2023-11-19T13:55:12;13.70;99.90
4828;DHT22;2428;48.732;9.148;2023-11-19T13:57:41;13.80;99.90
4828;DHT22;2428;48.732;9.148;2023-11-19T14:00:11;13.80;99.90
4828;DHT22;2428;48.732;9.148;2023-11-19T14:02:45;13.80;99.90
4828;DHT22;2428;48.732;9.148;2023-11-19T14:05:11;13.90;99.90
4828;DHT22;2428;48.732;9.148;2023-11-19T14:07:38;13.80;99.90
4828;DHT22;2428;48.732;9.148;2023-11-19T14:10:04;13.80;99.90
4828;DHT22;2428;48.732;9.148;2023-11-19T14:12:31;13.80;99.90
4828;DHT22;2428;48.732;9.148;2023-11-19T14:14:57;13.70;99.90
4828;DHT22;2428;48.732;9.148;2023-11-19T14:17:23;13.70;99.90
4828;DHT22;2428;48.732;9.148;2023-11-19T14:19:50;13.70;99.90
4828;DHT22;2428;48.732;9.148;2023-11-19T14:22:16;13.70;99.90
4828;DHT22;2428;48.732;9.148;2023-11-19T14:24:41;13.60;99.90
4828;DHT22;2428;48.732;9.148;2023-11-19T14:27:11;13.70;99.90
4828;DHT22;2428;48.732;9.148;2023-11-19T14:29:37;13.70;99.90
4828;DHT22;2428;48.732;9.148;2023-11-19T14:32:03;13.60;99.90
4828;DHT22;2428;48.732;9.148;2023-11-19T14:34:30;13.60;99.90
4828;DHT22;2428;48.732;9.148;2023-11-19T14:36:56;13.60;99.90
4828;DHT22;2428;48.732;9.148;2023-11-19T14:39:21;13.50;99.90
4828;DHT22;2428;48.732;9.148;2023-11-19T14:41:47;13.50;99.90
4828;DHT22;2428;48.732;9.148;2023-11-19T14:44:13;13.50;99.90
4828;DHT22;2428;48.732;9.148;2023-11-19T14:46:38;13.50;99.90
4828;DHT22;2428;48.732;9.148;2023-11-19T14:49:04;13.40;99.90
4828;DHT22;2428;48.732;9.148;2023-11-19T14:51:30;13.40;99.90
4828;DHT22;2428;48.732;9.148;2023-11-19T14:53:56;13.40;99.90
4828;DHT22;2428;48.732;9.148;2023-11-19T14:56:21;13.40;99.90
4828;DHT22;2428;48.732;9.148;2023-11-19T14:58:47;13.40;99.90
4828;DHT22;2428;48.732;9.148;2023-11-19T15:01:16;13.30;99.90
4828;DHT22;2428;48.732;9.148;2023-11-19T15:03:41;13.30;99.90
4828;DHT22;2428;48.732;9.148;2023-11-19T15:06:07;13.30;99.90
4828;DHT22;2428;48.732;9.148;2023-11-19T15:08:33;13.30;99.90
4828;DHT22;2428;48.732;9.148;2023-11-19T15:10:59;13.20;99.90
4828;DHT22;2428;48.732;9.148;2023-11-19T15:13:27;13.20;99.90
4828;DHT22;2428;48.732;9.148;2023-11-19T15:15:53;13.10;99.90
4828;DHT22;2428;48.732;9.148;2023-11-19T15:18:18;13.10;99.90
4828;DHT22;2428;48.732;9.148;2023-11-19T15:20:45;13.10;99.90
4828;DHT22;2428;48.732;9.148;2023-11-19T15:23:16;13.10;99.90
4828;DHT22;2428;48.732;9.148;2023-11-19T15:25:42;13.00;99.90
4828;DHT22;2428;48.732;9.148;2023-11-19T15:28:07;12.90;99.90
4828;DHT22;2428;48.732;9.148;2023-11-19T15:30:33;12.90;99.90
4828;DHT22;2428;48.732;9.148;2023-11-19T15:32:59;12.90;99.90
4828;DHT22;2428;48.732;9.148;2023-11-19T15:35:24;12.80;99.90
4828;DHT22;2428;48.732;9.148;2023-11-19T15:37:50;12.70;99.90
4828;DHT22;2428;48.732;9.148;2023-11-19T15:40:16;12.70;99.90
4828;DHT22;2428;48.732;9.148;2023-11-19T15:42:42;12.70;99.90
4828;DHT22;2428;48.732;9.148;2023-11-19T15:45:09;12.70;99.90
4828;DHT22;2428;48.732;9.148;2023-11-19T15:47:35;12.60;99.90
4828;DHT22;2428;48.732;9.148;2023-11-19T15:50:01;12.60;99.90
4828;DHT22;2428;48.732;9.148;2023-11-19T15:52:28;12.60;99.90
4828;DHT22;2428;48.732;9.148;2023-11-19T15:54:55;12.50;99.90
4828;DHT22;2428;48.732;9.148;2023-11-19T15:57:21;12.50;99.90
4828;DHT22;2428;48.732;9.148;2023-11-19T15:59:47;12.50;99.90
4828;DHT22;2428;48.732;9.148;2023-11-19T16:02:13;12.50;99.90
4828;DHT22;2428;48.732;9.148;2023-11-19T16:04:39;12.50;99.90
4828;DHT22;2428;48.732;9.148;2023-11-19T16:07:05;12.40;99.90
4828;DHT22;2428;48.732;9.148;2023-11-19T16:09:31;12.40;99.90
4828;DHT22;2428;48.732;9.148;2023-11-19T16:11:57;12.40;99.90
4828;DHT22;2428;48.732;9.148;2023-11-19T16:14:24;12.40;99.90
4828;DHT22;2428;48.732;9.148;2023-11-19T16:16:49;12.30;99.90
4828;DHT22;2428;48.732;9.148;2023-11-19T16:19:16;12.30;99.90
4828;DHT22;2428;48.732;9.148;2023-11-19T16:21:42;12.20;99.90
4828;DHT22;2428;48.732;9.148;2023-11-19T16:24:08;12.20;99.90
4828;DHT22;2428;48.732;9.148;2023-11-19T16:26:34;12.10;99.90